sensor_id;sensor_type;location;lat;lon;timestamp;P1;durP1;ratioP1;P2;durP2;ratioP2
52170;SDS011;38689;47.552;18.820;2023-11-21T00:00:36;6.95;;;2.75;;
52170;SDS011;38689;47.552;18.820;2023-11-21T00:03:02;7.50;;;2.80;;
52170;SDS011;38689;47.552;18.820;2023-11-21T00:05:29;7.15;;;2.90;;
52170;SDS011;38689;47.552;18.820;2023-11-21T00:07:55;5.45;;;2.45;;
52170;SDS011;38689;47.552;18.820;2023-11-21T00:10:21;6.78;;;2.83;;
52170;SDS011;38689;47.552;18.820;2023-11-21T00:12:47;5.65;;;2.67;;
52170;SDS011;38689;47.552;18.820;2023-11-21T00:15:13;4.95;;;2.75;;
52170;SDS011;38689;47.552;18.820;2023-11-21T00:17:39;6.53;;;2.58;;
52170;SDS011;38689;47.552;18.820;2023-11-21T00:20:06;5.10;;;2.60;;
52170;SDS011;38689;47.552;18.820;2023-11-21T00:22:35;6.37;;;2.42;;
52170;SDS011;38689;47.552;18.820;2023-11-21T00:25:02;5.45;;;2.60;;
52170;SDS011;38689;47.552;18.820;2023-11-21T00:27:29;6.37;;;2.50;;
52170;SDS011;38689;47.552;18.820;2023-11-21T00:29:55;6.18;;;2.42;;
52170;SDS011;38689;47.552;18.820;2023-11-21T00:32:22;5.53;;;2.10;;
52170;SDS011;38689;47.552;18.820;2023-11-21T00:34:48;4.95;;;2.72;;
52170;SDS011;38689;47.552;18.820;2023-11-21T00:37:14;5.80;;;2.40;;
52170;SDS011;38689;47.552;18.820;2023-11-21T00:39:40;3.78;;;2.20;;
52170;SDS011;38689;47.552;18.820;2023-11-21T00:42:06;5.45;;;2.03;;
52170;SDS011;38689;47.552;18.820;2023-11-21T00:44:32;5.30;;;2.30;;
52170;SDS011;38689;47.552;18.820;2023-11-21T00:46:59;6.05;;;2.42;;
52170;SDS011;38689;47.552;18.820;2023-11-21T00:49:25;3.65;;;2.05;;
52170;SDS011;38689;47.552;18.820;2023-11-21T00:51:51;3.65;;;2.03;;
52170;SDS011;38689;47.552;18.820;2023-11-21T00:54:17;8.30;;;2.50;;
52170;SDS011;38689;47.552;18.820;2023-11-21T00:56:43;9.70;;;2.45;;
52170;SDS011;38689;47.552;18.820;2023-11-21T00:59:09;6.00;;;2.28;;
52170;SDS011;38689;47.552;18.820;2023-11-21T01:01:36;4.35;;;2.28;;
52170;SDS011;38689;47.552;18.820;2023-11-21T01:04:03;4.35;;;2.20;;
52170;SDS011;38689;47.552;18.820;2023-11-21T01:06:29;5.70;;;2.10;;
52170;SDS011;38689;47.552;18.820;2023-11-21T01:08:58;5.35;;;2.42;;
52170;SDS011;38689;47.552;18.820;2023-11-21T01:11:24;5.68;;;2.55;;
52170;SDS011;38689;47.552;18.820;2023-11-21T01:13:50;4.45;;;2.25;;
52170;SDS011;38689;47.552;18.820;2023-11-21T01:16:16;3.67;;;1.95;;
52170;SDS011;38689;47.552;18.820;2023-11-21T01:18:42;3.55;;;2.20;;
52170;SDS011;38689;47.552;18.820;2023-11-21T01:21:08;5.07;;;2.00;;
52170;SDS011;38689;47.552;18.820;2023-11-21T01:23:34;3.75;;;1.85;;
52170;SDS011;38689;47.552;18.820;2023-11-21T01:26:00;5.32;;;2.05;;
52170;SDS011;38689;47.552;18.820;2023-11-21T01:28:26;4.57;;;2.00;;
52170;SDS011;38689;47.552;18.820;2023-11-21T01:30:52;3.25;;;1.70;;
52170;SDS011;38689;47.552;18.820;2023-11-21T01:33:22;3.05;;;1.65;;
52170;SDS011;38689;47.552;18.820;2023-11-21T01:35:51;3.95;;;2.12;;
52170;SDS011;38689;47.552;18.820;2023-11-21T01:38:20;3.45;;;1.80;;
52170;SDS011;38689;47.552;18.820;2023-11-21T01:41:06;3.85;;;1.65;;
52170;SDS011;38689;47.552;18.820;2023-11-21T01:43:32;4.22;;;1.45;;
52170;SDS011;38689;47.552;18.820;2023-11-21T01:45:59;4.20;;;2.10;;
52170;SDS011;38689;47.552;18.820;2023-11-21T01:48:25;3.47;;;1.42;;
52170;SDS011;38689;47.552;18.820;2023-11-21T01:50:53;4.90;;;1.62;;
52170;SDS011;38689;47.552;18.820;2023-11-21T01:53:19;4.68;;;1.60;;
52170;SDS011;38689;47.552;18.820;2023-11-21T01:55:45;2.20;;;1.40;;
52170;SDS011;38689;47.552;18.820;2023-11-21T01:58:12;4.57;;;1.77;;
52170;SDS011;38689;47.552;18.820;2023-11-21T02:00:39;3.53;;;1.70;;
52170;SDS011;38689;47.552;18.820;2023-11-21T02:03:05;4.40;;;1.73;;
52170;SDS011;38689;47.552;18.820;2023-11-21T02:05:32;5.20;;;1.92;;
52170;SDS011;38689;47.552;18.820;2023-11-21T02:07:58;3.03;;;1.65;;
52170;SDS011;38689;47.552;18.820;2023-11-21T02:10:24;4.20;;;1.40;;
52170;SDS011;38689;47.552;18.820;2023-11-21T02:12:50;3.85;;;1.60;;
52170;SDS011;38689;47.552;18.820;2023-11-21T02:15:16;3.87;;;1.52;;
52170;SDS011;38689;47.552;18.820;2023-11-21T02:17:46;3.50;;;1.42;;
52170;SDS011;38689;47.552;18.820;2023-11-21T02:20:17;3.40;;;1.80;;
52170;SDS011;38689;47.552;18.820;2023-11-21T02:22:44;2.95;;;1.48;;
52170;SDS011;38689;47.552;18.820;2023-11-21T02:25:29;3.70;;;1.65;;
52170;SDS011;38689;47.552;18.820;2023-11-21T02:27:56;4.62;;;1.80;;
52170;SDS011;38689;47.552;18.820;2023-11-21T02:30:23;1.65;;;1.33;;
52170;SDS011;38689;47.552;18.820;2023-11-21T02:32:50;2.42;;;1.50;;
52170;SDS011;38689;47.552;18.820;2023-11-21T02:35:20;3.72;;;1.30;;
52170;SDS011;38689;47.552;18.820;2023-11-21T02:37:54;2.15;;;1.30;;
52170;SDS011;38689;47.552;18.820;2023-11-21T02:40:40;2.65;;;1.40;;
52170;SDS011;38689;47.552;18.820;2023-11-21T02:43:06;4.28;;;1.48;;
52170;SDS011;38689;47.552;18.820;2023-11-21T02:45:32;2.10;;;1.40;;
52170;SDS011;38689;47.552;18.820;2023-11-21T02:47:58;1.55;;;1.12;;
52170;SDS011;38689;47.552;18.820;2023-11-21T02:50:44;5.05;;;1.45;;
52170;SDS011;38689;47.552;18.820;2023-11-21T02:53:30;2.60;;;1.30;;
52170;SDS011;38689;47.552;18.820;2023-11-21T02:55:56;3.20;;;1.42;;
52170;SDS011;38689;47.552;18.820;2023-11-21T02:58:22;3.45;;;1.55;;
52170;SDS011;38689;47.552;18.820;2023-11-21T03:00:47;3.85;;;1.58;;
52170;SDS011;38689;47.552;18.820;2023-11-21T03:03:13;3.60;;;1.45;;
52170;SDS011;38689;47.552;18.820;2023-11-21T03:05:41;4.50;;;1.40;;
52170;SDS011;38689;47.552;18.820;2023-11-21T03:08:08;4.32;;;1.40;;
52170;SDS011;38689;47.552;18.820;2023-11-21T03:10:34;2.58;;;1.50;;
52170;SDS011;38689;47.552;18.820;2023-11-21T03:13:01;3.00;;;1.20;;
52170;SDS011;38689;47.552;18.820;2023-11-21T03:15:27;3.92;;;1.30;;
52170;SDS011;38689;47.552;18.820;2023-11-21T03:17:53;5.12;;;1.25;;
52170;SDS011;38689;47.552;18.820;2023-11-21T03:20:19;4.47;;;1.52;;
52170;SDS011;38689;47.552;18.820;2023-11-21T03:22:45;5.53;;;1.90;;
52170;SDS011;38689;47.552;18.820;2023-11-21T03:25:30;2.50;;;1.52;;
52170;SDS011;38689;47.552;18.820;2023-11-21T03:27:56;3.00;;;1.40;;
52170;SDS011;38689;47.552;18.820;2023-11-21T03:30:23;4.28;;;1.52;;
52170;SDS011;38689;47.552;18.820;2023-11-21T03:32:49;3.58;;;1.67;;
52170;SDS011;38689;47.552;18.820;2023-11-21T03:35:15;2.60;;;1.40;;
52170;SDS011;38689;47.552;18.820;2023-11-21T03:37:41;3.25;;;1.40;;
52170;SDS011;38689;47.552;18.820;2023-11-21T03:40:08;7.07;;;1.62;;
52170;SDS011;38689;47.552;18.820;2023-11-21T03:42:34;4.15;;;1.58;;
52170;SDS011;38689;47.552;18.820;2023-11-21T03:45:00;2.42;;;1.55;;
52170;SDS011;38689;47.552;18.820;2023-11-21T03:47:27;3.95;;;1.75;;
52170;SDS011;38689;47.552;18.820;2023-11-21T03:49:53;3.50;;;1.30;;
52170;SDS011;38689;47.552;18.820;2023-11-21T03:52:19;3.03;;;1.40;;
52170;SDS011;38689;47.552;18.820;2023-11-21T03:54:45;2.78;;;1.27;;
52170;SDS011;38689;47.552;18.820;2023-11-21T03:57:11;4.12;;;1.70;;
52170;SDS011;38689;47.552;18.820;2023-11-21T03:59:41;3.55;;;1.60;;
52170;SDS011;38689;47.552;18.820;2023-11-21T04:02:07;5.95;;;1.50;;
52170;SDS011;38689;47.552;18.820;2023-11-21T04:04:33;6.18;;;1.60;;
52170;SDS011;38689;47.552;18.820;2023-11-21T04:07:00;7.10;;;1.75;;
52170;SDS011;38689;47.552;18.820;2023-11-21T04:09:26;3.80;;;1.73;;
52170;SDS011;38689;47.552;18.820;2023-11-21T04:11:52;4.45;;;1.70;;
52170;SDS011;38689;47.552;18.820;2023-11-21T04:14:18;3.92;;;1.60;;
52170;SDS011;38689;47.552;18.820;2023-11-21T04:16:44;3.65;;;1.60;;
52170;SDS011;38689;47.552;18.820;2023-11-21T04:19:10;2.80;;;1.70;;
52170;SDS011;38689;47.552;18.820;2023-11-21T04:21:36;4.87;;;1.90;;
52170;SDS011;38689;47.552;18.820;2023-11-21T04:24:03;3.47;;;1.85;;
52170;SDS011;38689;47.552;18.820;2023-11-21T04:26:30;3.22;;;1.77;;
52170;SDS011;38689;47.552;18.820;2023-11-21T04:28:55;4.85;;;2.12;;
52170;SDS011;38689;47.552;18.820;2023-11-21T04:31:21;6.18;;;2.00;;
52170;SDS011;38689;47.552;18.820;2023-11-21T04:33:47;3.40;;;1.50;;
52170;SDS011;38689;47.552;18.820;2023-11-21T04:36:13;3.42;;;1.50;;
52170;SDS011;38689;47.552;18.820;2023-11-21T04:38:39;4.05;;;1.90;;
52170;SDS011;38689;47.552;18.820;2023-11-21T04:41:06;3.97;;;1.65;;
52170;SDS011;38689;47.552;18.820;2023-11-21T04:43:32;3.37;;;1.60;;
52170;SDS011;38689;47.552;18.820;2023-11-21T04:45:58;3.05;;;1.70;;
52170;SDS011;38689;47.552;18.820;2023-11-21T04:48:25;2.53;;;1.55;;
52170;SDS011;38689;47.552;18.820;2023-11-21T04:50:51;3.10;;;1.62;;
52170;SDS011;38689;47.552;18.820;2023-11-21T04:53:17;5.85;;;1.92;;
52170;SDS011;38689;47.552;18.820;2023-11-21T04:55:43;2.95;;;1.60;;
52170;SDS011;38689;47.552;18.820;2023-11-21T04:58:09;2.22;;;1.30;;
52170;SDS011;38689;47.552;18.820;2023-11-21T05:00:36;3.45;;;1.50;;
52170;SDS011;38689;47.552;18.820;2023-11-21T05:03:02;4.47;;;1.50;;
52170;SDS011;38689;47.552;18.820;2023-11-21T05:05:29;2.60;;;1.50;;
52170;SDS011;38689;47.552;18.820;2023-11-21T05:07:55;2.80;;;1.90;;
52170;SDS011;38689;47.552;18.820;2023-11-21T05:10:21;2.75;;;1.50;;
52170;SDS011;38689;47.552;18.820;2023-11-21T05:12:48;2.85;;;1.52;;
52170;SDS011;38689;47.552;18.820;2023-11-21T05:15:15;4.18;;;1.62;;
52170;SDS011;38689;47.552;18.820;2023-11-21T05:17:43;4.80;;;2.12;;
52170;SDS011;38689;47.552;18.820;2023-11-21T05:20:15;3.28;;;1.95;;
52170;SDS011;38689;47.552;18.820;2023-11-21T05:22:50;5.28;;;1.75;;
52170;SDS011;38689;47.552;18.820;2023-11-21T05:25:16;4.47;;;1.92;;
52170;SDS011;38689;47.552;18.820;2023-11-21T05:27:44;5.43;;;2.25;;
52170;SDS011;38689;47.552;18.820;2023-11-21T05:30:11;6.85;;;2.30;;
52170;SDS011;38689;47.552;18.820;2023-11-21T05:32:39;5.03;;;2.20;;
52170;SDS011;38689;47.552;18.820;2023-11-21T05:35:08;5.07;;;2.47;;
52170;SDS011;38689;47.552;18.820;2023-11-21T05:37:41;6.50;;;2.93;;
52170;SDS011;38689;47.552;18.820;2023-11-21T05:40:08;7.43;;;2.90;;
52170;SDS011;38689;47.552;18.820;2023-11-21T05:42:34;4.47;;;2.20;;
52170;SDS011;38689;47.552;18.820;2023-11-21T05:45:01;5.15;;;2.50;;
52170;SDS011;38689;47.552;18.820;2023-11-21T05:47:40;6.37;;;2.70;;
52170;SDS011;38689;47.552;18.820;2023-11-21T05:50:08;4.28;;;2.40;;
52170;SDS011;38689;47.552;18.820;2023-11-21T05:52:44;5.03;;;2.27;;
52170;SDS011;38689;47.552;18.820;2023-11-21T05:55:11;6.00;;;2.60;;
52170;SDS011;38689;47.552;18.820;2023-11-21T05:57:37;8.50;;;2.47;;
52170;SDS011;38689;47.552;18.820;2023-11-21T06:00:08;16.92;;;5.07;;
52170;SDS011;38689;47.552;18.820;2023-11-21T06:02:46;18.67;;;5.40;;
52170;SDS011;38689;47.552;18.820;2023-11-21T06:05:16;12.00;;;5.03;;
52170;SDS011;38689;47.552;18.820;2023-11-21T06:07:43;10.88;;;4.35;;
52170;SDS011;38689;47.552;18.820;2023-11-21T06:10:10;10.68;;;4.00;;
52170;SDS011;38689;47.552;18.820;2023-11-21T06:12:40;9.50;;;3.10;;
52170;SDS011;38689;47.552;18.820;2023-11-21T06:15:08;6.43;;;2.58;;
52170;SDS011;38689;47.552;18.820;2023-11-21T06:17:35;7.65;;;2.42;;
52170;SDS011;38689;47.552;18.820;2023-11-21T06:20:08;5.45;;;2.33;;
52170;SDS011;38689;47.552;18.820;2023-11-21T06:22:36;19.50;;;5.90;;
52170;SDS011;38689;47.552;18.820;2023-11-21T06:25:05;27.70;;;7.47;;
52170;SDS011;38689;47.552;18.820;2023-11-21T06:27:32;9.40;;;3.37;;
52170;SDS011;38689;47.552;18.820;2023-11-21T06:29:59;15.48;;;4.35;;
52170;SDS011;38689;47.552;18.820;2023-11-21T06:32:25;17.80;;;6.68;;
52170;SDS011;38689;47.552;18.820;2023-11-21T06:34:54;13.68;;;5.95;;
52170;SDS011;38689;47.552;18.820;2023-11-21T06:37:30;23.65;;;8.35;;
52170;SDS011;38689;47.552;18.820;2023-11-21T06:39:57;20.75;;;7.75;;
52170;SDS011;38689;47.552;18.820;2023-11-21T06:42:24;20.80;;;7.55;;
52170;SDS011;38689;47.552;18.820;2023-11-21T06:44:50;13.55;;;6.05;;
52170;SDS011;38689;47.552;18.820;2023-11-21T06:47:19;16.75;;;6.45;;
52170;SDS011;38689;47.552;18.820;2023-11-21T06:49:52;11.02;;;4.70;;
52170;SDS011;38689;47.552;18.820;2023-11-21T06:52:18;8.93;;;3.70;;
52170;SDS011;38689;47.552;18.820;2023-11-21T06:54:45;10.10;;;3.10;;
52170;SDS011;38689;47.552;18.820;2023-11-21T06:57:16;9.95;;;3.87;;
52170;SDS011;38689;47.552;18.820;2023-11-21T07:00:24;6.85;;;3.50;;
52170;SDS011;38689;47.552;18.820;2023-11-21T07:02:50;15.82;;;3.45;;
52170;SDS011;38689;47.552;18.820;2023-11-21T07:05:16;7.10;;;3.30;;
52170;SDS011;38689;47.552;18.820;2023-11-21T07:07:46;6.18;;;2.97;;
52170;SDS011;38689;47.552;18.820;2023-11-21T07:10:13;8.43;;;3.67;;
52170;SDS011;38689;47.552;18.820;2023-11-21T07:12:39;7.20;;;2.90;;
52170;SDS011;38689;47.552;18.820;2023-11-21T07:15:06;5.85;;;3.17;;
52170;SDS011;38689;47.552;18.820;2023-11-21T07:17:35;4.28;;;2.65;;
52170;SDS011;38689;47.552;18.820;2023-11-21T07:20:01;6.25;;;2.60;;
52170;SDS011;38689;47.552;18.820;2023-11-21T07:22:28;8.85;;;3.17;;
52170;SDS011;38689;47.552;18.820;2023-11-21T07:24:54;5.40;;;2.87;;
52170;SDS011;38689;47.552;18.820;2023-11-21T07:27:22;9.70;;;2.65;;
52170;SDS011;38689;47.552;18.820;2023-11-21T07:29:48;6.07;;;3.00;;
52170;SDS011;38689;47.552;18.820;2023-11-21T07:32:14;8.30;;;2.90;;
52170;SDS011;38689;47.552;18.820;2023-11-21T07:34:40;6.82;;;3.05;;
52170;SDS011;38689;47.552;18.820;2023-11-21T07:37:07;7.62;;;2.85;;
52170;SDS011;38689;47.552;18.820;2023-11-21T07:39:34;5.30;;;2.75;;
52170;SDS011;38689;47.552;18.820;2023-11-21T07:42:02;7.50;;;3.10;;
52170;SDS011;38689;47.552;18.820;2023-11-21T07:44:28;6.22;;;2.87;;
52170;SDS011;38689;47.552;18.820;2023-11-21T07:46:54;5.00;;;2.28;;
52170;SDS011;38689;47.552;18.820;2023-11-21T07:49:24;4.07;;;2.12;;
52170;SDS011;38689;47.552;18.820;2023-11-21T07:51:50;4.65;;;2.53;;
52170;SDS011;38689;47.552;18.820;2023-11-21T07:54:16;4.25;;;2.47;;
52170;SDS011;38689;47.552;18.820;2023-11-21T07:56:45;7.03;;;2.53;;
52170;SDS011;38689;47.552;18.820;2023-11-21T07:59:14;5.18;;;2.62;;
52170;SDS011;38689;47.552;18.820;2023-11-21T08:01:40;4.65;;;2.75;;
52170;SDS011;38689;47.552;18.820;2023-11-21T08:04:06;5.15;;;2.65;;
52170;SDS011;38689;47.552;18.820;2023-11-21T08:06:32;6.40;;;3.45;;
52170;SDS011;38689;47.552;18.820;2023-11-21T08:08:58;8.18;;;3.78;;
52170;SDS011;38689;47.552;18.820;2023-11-21T08:11:24;7.32;;;3.67;;
52170;SDS011;38689;47.552;18.820;2023-11-21T08:16:27;6.68;;;3.40;;
52170;SDS011;38689;47.552;18.820;2023-11-21T08:18:53;7.57;;;3.17;;
52170;SDS011;38689;47.552;18.820;2023-11-21T08:21:20;7.87;;;3.65;;
52170;SDS011;38689;47.552;18.820;2023-11-21T08:23:46;10.45;;;3.47;;
52170;SDS011;38689;47.552;18.820;2023-11-21T08:26:15;9.32;;;4.20;;
52170;SDS011;38689;47.552;18.820;2023-11-21T08:28:43;9.93;;;5.10;;
52170;SDS011;38689;47.552;18.820;2023-11-21T08:31:12;8.25;;;4.53;;
52170;SDS011;38689;47.552;18.820;2023-11-21T08:33:38;9.57;;;4.45;;
52170;SDS011;38689;47.552;18.820;2023-11-21T08:36:08;8.50;;;4.68;;
52170;SDS011;38689;47.552;18.820;2023-11-21T08:38:35;8.95;;;4.37;;
52170;SDS011;38689;47.552;18.820;2023-11-21T08:41:06;6.95;;;4.10;;
52170;SDS011;38689;47.552;18.820;2023-11-21T08:43:54;9.52;;;4.55;;
52170;SDS011;38689;47.552;18.820;2023-11-21T08:46:41;8.90;;;5.05;;
52170;SDS011;38689;47.552;18.820;2023-11-21T08:49:07;11.35;;;5.07;;
52170;SDS011;38689;47.552;18.820;2023-11-21T08:51:33;12.43;;;5.68;;
52170;SDS011;38689;47.552;18.820;2023-11-21T08:53:59;13.50;;;5.82;;
52170;SDS011;38689;47.552;18.820;2023-11-21T08:56:31;14.65;;;5.93;;
52170;SDS011;38689;47.552;18.820;2023-11-21T08:58:57;14.90;;;6.25;;
52170;SDS011;38689;47.552;18.820;2023-11-21T09:01:23;13.90;;;6.37;;
52170;SDS011;38689;47.552;18.820;2023-11-21T09:03:50;13.77;;;6.32;;
52170;SDS011;38689;47.552;18.820;2023-11-21T09:06:16;14.65;;;6.32;;
52170;SDS011;38689;47.552;18.820;2023-11-21T09:08:42;16.15;;;6.75;;
52170;SDS011;38689;47.552;18.820;2023-11-21T09:11:09;15.10;;;6.95;;
52170;SDS011;38689;47.552;18.820;2023-11-21T09:13:35;15.68;;;7.15;;
52170;SDS011;38689;47.552;18.820;2023-11-21T09:18:50;13.05;;;6.35;;
52170;SDS011;38689;47.552;18.820;2023-11-21T09:21:16;14.45;;;6.35;;
52170;SDS011;38689;47.552;18.820;2023-11-21T09:23:43;12.65;;;5.68;;
52170;SDS011;38689;47.552;18.820;2023-11-21T09:26:10;11.43;;;5.80;;
52170;SDS011;38689;47.552;18.820;2023-11-21T09:28:36;12.63;;;6.62;;
52170;SDS011;38689;47.552;18.820;2023-11-21T09:31:11;12.32;;;6.15;;
52170;SDS011;38689;47.552;18.820;2023-11-21T09:33:40;11.27;;;6.00;;
52170;SDS011;38689;47.552;18.820;2023-11-21T09:36:13;10.25;;;5.28;;
52170;SDS011;38689;47.552;18.820;2023-11-21T09:38:59;10.48;;;4.78;;
52170;SDS011;38689;47.552;18.820;2023-11-21T09:41:51;11.50;;;5.12;;
52170;SDS011;38689;47.552;18.820;2023-11-21T09:47:37;9.00;;;4.72;;
52170;SDS011;38689;47.552;18.820;2023-11-21T09:50:04;12.57;;;5.10;;
52170;SDS011;38689;47.552;18.820;2023-11-21T09:52:33;8.15;;;4.78;;
52170;SDS011;38689;47.552;18.820;2023-11-21T09:55:27;10.48;;;4.80;;
52170;SDS011;38689;47.552;18.820;2023-11-21T09:57:56;9.30;;;4.90;;
52170;SDS011;38689;47.552;18.820;2023-11-21T10:00:23;9.55;;;4.45;;
52170;SDS011;38689;47.552;18.820;2023-11-21T10:02:51;9.10;;;4.37;;
52170;SDS011;38689;47.552;18.820;2023-11-21T10:05:18;7.95;;;4.45;;
52170;SDS011;38689;47.552;18.820;2023-11-21T10:07:48;9.10;;;5.10;;
52170;SDS011;38689;47.552;18.820;2023-11-21T10:10:15;15.80;;;6.05;;
52170;SDS011;38689;47.552;18.820;2023-11-21T10:12:53;14.43;;;6.00;;
52170;SDS011;38689;47.552;18.820;2023-11-21T10:15:22;11.25;;;5.20;;
52170;SDS011;38689;47.552;18.820;2023-11-21T10:21:16;11.77;;;5.80;;
52170;SDS011;38689;47.552;18.820;2023-11-21T10:24:03;11.55;;;5.43;;
52170;SDS011;38689;47.552;18.820;2023-11-21T10:26:32;11.00;;;5.93;;
52170;SDS011;38689;47.552;18.820;2023-11-21T10:28:59;9.55;;;5.72;;
52170;SDS011;38689;47.552;18.820;2023-11-21T10:31:31;12.68;;;6.95;;
52170;SDS011;38689;47.552;18.820;2023-11-21T10:34:17;11.75;;;5.82;;
52170;SDS011;38689;47.552;18.820;2023-11-21T10:36:45;10.95;;;5.37;;
52170;SDS011;38689;47.552;18.820;2023-11-21T10:39:38;16.05;;;6.43;;
52170;SDS011;38689;47.552;18.820;2023-11-21T10:42:08;11.73;;;4.90;;
52170;SDS011;38689;47.552;18.820;2023-11-21T10:44:53;12.43;;;4.45;;
52170;SDS011;38689;47.552;18.820;2023-11-21T10:47:19;11.68;;;4.47;;
52170;SDS011;38689;47.552;18.820;2023-11-21T10:49:48;8.73;;;4.00;;
52170;SDS011;38689;47.552;18.820;2023-11-21T10:52:14;10.25;;;4.00;;
52170;SDS011;38689;47.552;18.820;2023-11-21T10:54:43;8.73;;;4.28;;
52170;SDS011;38689;47.552;18.820;2023-11-21T10:57:09;9.93;;;4.47;;
52170;SDS011;38689;47.552;18.820;2023-11-21T10:59:36;10.07;;;5.20;;
52170;SDS011;38689;47.552;18.820;2023-11-21T11:02:10;15.82;;;5.90;;
52170;SDS011;38689;47.552;18.820;2023-11-21T11:04:48;12.05;;;5.28;;
52170;SDS011;38689;47.552;18.820;2023-11-21T11:07:14;11.40;;;5.50;;
52170;SDS011;38689;47.552;18.820;2023-11-21T11:09:41;9.27;;;4.35;;
52170;SDS011;38689;47.552;18.820;2023-11-21T11:12:10;11.60;;;5.00;;
52170;SDS011;38689;47.552;18.820;2023-11-21T11:14:36;10.05;;;4.40;;
52170;SDS011;38689;47.552;18.820;2023-11-21T11:17:02;19.17;;;7.78;;
52170;SDS011;38689;47.552;18.820;2023-11-21T11:19:31;8.70;;;4.35;;
52170;SDS011;38689;47.552;18.820;2023-11-21T11:24:52;5.65;;;2.75;;
52170;SDS011;38689;47.552;18.820;2023-11-21T11:27:24;6.32;;;2.50;;
52170;SDS011;38689;47.552;18.820;2023-11-21T11:38:48;3.40;;;1.73;;
52170;SDS011;38689;47.552;18.820;2023-11-21T11:44:46;3.33;;;1.80;;
52170;SDS011;38689;47.552;18.820;2023-11-21T11:47:14;6.72;;;2.17;;
52170;SDS011;38689;47.552;18.820;2023-11-21T11:50:00;5.95;;;2.70;;
52170;SDS011;38689;47.552;18.820;2023-11-21T11:52:43;5.93;;;2.83;;
52170;SDS011;38689;47.552;18.820;2023-11-21T11:55:11;5.35;;;2.78;;
52170;SDS011;38689;47.552;18.820;2023-11-21T11:57:48;5.37;;;2.97;;
52170;SDS011;38689;47.552;18.820;2023-11-21T12:00:19;6.32;;;2.70;;
52170;SDS011;38689;47.552;18.820;2023-11-21T12:02:49;7.10;;;3.10;;
52170;SDS011;38689;47.552;18.820;2023-11-21T12:05:18;5.47;;;2.87;;
52170;SDS011;38689;47.552;18.820;2023-11-21T12:10:57;6.32;;;3.15;;
52170;SDS011;38689;47.552;18.820;2023-11-21T12:13:26;5.12;;;2.75;;
52170;SDS011;38689;47.552;18.820;2023-11-21T12:15:54;4.72;;;2.40;;
52170;SDS011;38689;47.552;18.820;2023-11-21T12:18:22;11.00;;;2.95;;
52170;SDS011;38689;47.552;18.820;2023-11-21T12:20:52;6.00;;;2.72;;
52170;SDS011;38689;47.552;18.820;2023-11-21T12:23:18;6.05;;;2.55;;
52170;SDS011;38689;47.552;18.820;2023-11-21T12:25:44;5.30;;;2.55;;
52170;SDS011;38689;47.552;18.820;2023-11-21T12:28:10;4.60;;;2.72;;
52170;SDS011;38689;47.552;18.820;2023-11-21T12:30:37;6.72;;;3.25;;
52170;SDS011;38689;47.552;18.820;2023-11-21T12:33:03;6.18;;;3.15;;
52170;SDS011;38689;47.552;18.820;2023-11-21T12:35:33;6.35;;;2.95;;
52170;SDS011;38689;47.552;18.820;2023-11-21T12:38:00;8.57;;;3.53;;
52170;SDS011;38689;47.552;18.820;2023-11-21T12:40:30;5.47;;;2.47;;
52170;SDS011;38689;47.552;18.820;2023-11-21T12:43:00;5.57;;;2.40;;
52170;SDS011;38689;47.552;18.820;2023-11-21T12:45:27;6.37;;;3.50;;
52170;SDS011;38689;47.552;18.820;2023-11-21T12:47:55;7.75;;;2.90;;
52170;SDS011;38689;47.552;18.820;2023-11-21T12:50:28;6.30;;;2.55;;
52170;SDS011;38689;47.552;18.820;2023-11-21T12:53:01;3.35;;;2.08;;
52170;SDS011;38689;47.552;18.820;2023-11-21T12:55:35;5.50;;;2.33;;
52170;SDS011;38689;47.552;18.820;2023-11-21T12:58:08;7.78;;;3.58;;
52170;SDS011;38689;47.552;18.820;2023-11-21T13:00:36;4.22;;;2.00;;
52170;SDS011;38689;47.552;18.820;2023-11-21T13:03:08;4.25;;;2.17;;
52170;SDS011;38689;47.552;18.820;2023-11-21T13:05:38;8.82;;;3.20;;
52170;SDS011;38689;47.552;18.820;2023-11-21T13:08:25;4.55;;;2.05;;
52170;SDS011;38689;47.552;18.820;2023-11-21T13:10:53;4.70;;;2.20;;
52170;SDS011;38689;47.552;18.820;2023-11-21T13:13:22;4.12;;;2.00;;
52170;SDS011;38689;47.552;18.820;2023-11-21T13:15:53;4.57;;;1.90;;
52170;SDS011;38689;47.552;18.820;2023-11-21T13:18:43;7.70;;;4.00;;
52170;SDS011;38689;47.552;18.820;2023-11-21T13:21:12;6.97;;;3.00;;
52170;SDS011;38689;47.552;18.820;2023-11-21T13:23:58;6.15;;;3.10;;
52170;SDS011;38689;47.552;18.820;2023-11-21T13:26:24;7.55;;;2.87;;
52170;SDS011;38689;47.552;18.820;2023-11-21T13:28:52;8.18;;;3.58;;
52170;SDS011;38689;47.552;18.820;2023-11-21T13:31:19;8.40;;;3.70;;
52170;SDS011;38689;47.552;18.820;2023-11-21T13:33:52;7.97;;;3.67;;
52170;SDS011;38689;47.552;18.820;2023-11-21T13:36:22;11.48;;;4.35;;
52170;SDS011;38689;47.552;18.820;2023-11-21T13:38:51;13.40;;;4.22;;
52170;SDS011;38689;47.552;18.820;2023-11-21T13:41:21;11.45;;;4.32;;
52170;SDS011;38689;47.552;18.820;2023-11-21T13:44:07;8.55;;;4.22;;
52170;SDS011;38689;47.552;18.820;2023-11-21T13:46:52;7.40;;;3.47;;
52170;SDS011;38689;47.552;18.820;2023-11-21T13:49:18;10.27;;;3.70;;
52170;SDS011;38689;47.552;18.820;2023-11-21T13:51:46;8.68;;;3.37;;
52170;SDS011;38689;47.552;18.820;2023-11-21T13:54:16;5.25;;;3.05;;
52170;SDS011;38689;47.552;18.820;2023-11-21T13:56:42;5.50;;;2.90;;
52170;SDS011;38689;47.552;18.820;2023-11-21T13:59:10;8.32;;;3.17;;
52170;SDS011;38689;47.552;18.820;2023-11-21T14:01:48;6.70;;;2.85;;
52170;SDS011;38689;47.552;18.820;2023-11-21T14:04:18;5.25;;;2.75;;
52170;SDS011;38689;47.552;18.820;2023-11-21T14:06:51;6.05;;;2.47;;
52170;SDS011;38689;47.552;18.820;2023-11-21T14:09:21;6.22;;;2.42;;
52170;SDS011;38689;47.552;18.820;2023-11-21T14:11:51;7.10;;;2.42;;
52170;SDS011;38689;47.552;18.820;2023-11-21T14:14:19;8.52;;;2.55;;
52170;SDS011;38689;47.552;18.820;2023-11-21T14:16:46;4.95;;;2.65;;
52170;SDS011;38689;47.552;18.820;2023-11-21T14:19:13;5.25;;;2.42;;
52170;SDS011;38689;47.552;18.820;2023-11-21T14:21:43;5.20;;;2.53;;
52170;SDS011;38689;47.552;18.820;2023-11-21T14:24:09;4.90;;;2.55;;
52170;SDS011;38689;47.552;18.820;2023-11-21T14:26:41;4.32;;;1.83;;
52170;SDS011;38689;47.552;18.820;2023-11-21T14:29:08;6.53;;;2.15;;
52170;SDS011;38689;47.552;18.820;2023-11-21T14:31:41;6.00;;;1.83;;
52170;SDS011;38689;47.552;18.820;2023-11-21T14:34:07;3.50;;;1.92;;
52170;SDS011;38689;47.552;18.820;2023-11-21T14:36:34;6.78;;;2.78;;
52170;SDS011;38689;47.552;18.820;2023-11-21T14:39:05;5.60;;;2.20;;
52170;SDS011;38689;47.552;18.820;2023-11-21T14:41:51;4.97;;;1.85;;
52170;SDS011;38689;47.552;18.820;2023-11-21T14:44:22;4.68;;;2.15;;
52170;SDS011;38689;47.552;18.820;2023-11-21T14:46:52;3.15;;;1.75;;
52170;SDS011;38689;47.552;18.820;2023-11-21T14:49:42;3.90;;;1.87;;
52170;SDS011;38689;47.552;18.820;2023-11-21T14:52:25;12.30;;;2.35;;
52170;SDS011;38689;47.552;18.820;2023-11-21T14:55:00;4.78;;;1.90;;
52170;SDS011;38689;47.552;18.820;2023-11-21T14:57:49;4.93;;;1.77;;
52170;SDS011;38689;47.552;18.820;2023-11-21T15:00:18;4.55;;;1.60;;
52170;SDS011;38689;47.552;18.820;2023-11-21T15:03:11;3.17;;;1.50;;
52170;SDS011;38689;47.552;18.820;2023-11-21T15:05:58;3.67;;;1.90;;
52170;SDS011;38689;47.552;18.820;2023-11-21T15:08:25;3.47;;;1.50;;
52170;SDS011;38689;47.552;18.820;2023-11-21T15:10:59;4.93;;;2.00;;
52170;SDS011;38689;47.552;18.820;2023-11-21T15:13:27;4.30;;;1.98;;